sensor_id;sensor_type;location;lat;lon;timestamp;temperature;humidity
11762;DHT22;5938;47.098;15.474;2023-04-30T00:00:00;9.40;99.90
11762;DHT22;5938;47.098;15.474;2023-04-30T00:04:05;9.50;99.90
11762;DHT22;5938;47.098;15.474;2023-04-30T00:08:08;9.50;99.90
11762;DHT22;5938;47.098;15.474;2023-04-30T00:12:12;9.50;99.90
11762;DHT22;5938;47.098;15.474;2023-04-30T00:16:15;9.50;99.90
11762;DHT22;5938;47.098;15.474;2023-04-30T00:20:20;9.40;99.90
11762;DHT22;5938;47.098;15.474;2023-04-30T00:24:23;9.30;99.90
11762;DHT22;5938;47.098;15.474;2023-04-30T00:28:26;9.30;99.90
11762;DHT22;5938;47.098;15.474;2023-04-30T00:32:30;9.40;99.90
11762;DHT22;5938;47.098;15.474;2023-04-30T00:36:34;9.50;99.90
11762;DHT22;5938;47.098;15.474;2023-04-30T00:40:39;9.50;99.90
11762;DHT22;5938;47.098;15.474;2023-04-30T00:44:43;9.60;99.90
11762;DHT22;5938;47.098;15.474;2023-04-30T00:48:47;9.50;99.90
11762;DHT22;5938;47.098;15.474;2023-04-30T00:52:52;9.50;99.90
11762;DHT22;5938;47.098;15.474;2023-04-30T00:56:56;9.60;99.90
11762;DHT22;5938;47.098;15.474;2023-04-30T01:01:00;9.70;99.90
11762;DHT22;5938;47.098;15.474;2023-04-30T01:05:05;9.70;99.90
11762;DHT22;5938;47.098;15.474;2023-04-30T01:09:12;9.70;99.90
11762;DHT22;5938;47.098;15.474;2023-04-30T01:13:24;9.70;99.90
11762;DHT22;5938;47.098;15.474;2023-04-30T01:17:33;9.60;99.90
11762;DHT22;5938;47.098;15.474;2023-04-30T01:21:42;9.50;99.90
11762;DHT22;5938;47.098;15.474;2023-04-30T01:26:05;9.40;99.90
11762;DHT22;5938;47.098;15.474;2023-04-30T01:30:14;9.30;99.90
11762;DHT22;5938;47.098;15.474;2023-04-30T01:34:19;9.30;99.90
11762;DHT22;5938;47.098;15.474;2023-04-30T01:38:31;9.20;99.90
11762;DHT22;5938;47.098;15.474;2023-04-30T01:42:43;9.10;99.90
11762;DHT22;5938;47.098;15.474;2023-04-30T01:46:57;9.00;99.90
11762;DHT22;5938;47.098;15.474;2023-04-30T01:51:07;8.90;99.90
11762;DHT22;5938;47.098;15.474;2023-04-30T01:55:13;8.80;99.90
11762;DHT22;5938;47.098;15.474;2023-04-30T01:59:20;8.80;99.90
11762;DHT22;5938;47.098;15.474;2023-04-30T02:03:26;8.70;99.90
11762;DHT22;5938;47.098;15.474;2023-04-30T02:07:36;8.70;99.90
11762;DHT22;5938;47.098;15.474;2023-04-30T02:11:41;8.70;99.90
11762;DHT22;5938;47.098;15.474;2023-04-30T02:15:45;8.70;99.90
11762;DHT22;5938;47.098;15.474;2023-04-30T02:19:50;8.60;99.90
11762;DHT22;5938;47.098;15.474;2023-04-30T02:23:53;8.50;99.90
11762;DHT22;5938;47.098;15.474;2023-04-30T02:27:57;8.40;99.90
11762;DHT22;5938;47.098;15.474;2023-04-30T02:32:00;8.50;99.90
11762;DHT22;5938;47.098;15.474;2023-04-30T02:36:05;8.40;99.90
11762;DHT22;5938;47.098;15.474;2023-04-30T02:40:09;8.50;99.90
11762;DHT22;5938;47.098;15.474;2023-04-30T02:44:13;8.50;99.90
11762;DHT22;5938;47.098;15.474;2023-04-30T02:48:17;8.60;99.90
11762;DHT22;5938;47.098;15.474;2023-04-30T02:52:21;8.80;99.90
11762;DHT22;5938;47.098;15.474;2023-04-30T02:56:25;8.90;99.90
11762;DHT22;5938;47.098;15.474;2023-04-30T03:00:29;9.00;99.90
11762;DHT22;5938;47.098;15.474;2023-04-30T03:04:32;9.20;99.90
11762;DHT22;5938;47.098;15.474;2023-04-30T03:08:37;9.20;99.90
11762;DHT22;5938;47.098;15.474;2023-04-30T03:12:40;9.30;99.90
11762;DHT22;5938;47.098;15.474;2023-04-30T03:16:44;9.50;99.90
11762;DHT22;5938;47.098;15.474;2023-04-30T03:20:47;9.60;99.90
11762;DHT22;5938;47.098;15.474;2023-04-30T03:24:52;9.70;99.90
11762;DHT22;5938;47.098;15.474;2023-04-30T03:28:55;9.80;99.90
11762;DHT22;5938;47.098;15.474;2023-04-30T03:32:58;9.80;99.90
11762;DHT22;5938;47.098;15.474;2023-04-30T03:37:02;9.90;99.90
11762;DHT22;5938;47.098;15.474;2023-04-30T03:41:07;9.80;99.90
11762;DHT22;5938;47.098;15.474;2023-04-30T03:45:10;10.00;99.90
11762;DHT22;5938;47.098;15.474;2023-04-30T03:49:14;10.00;99.90
11762;DHT22;5938;47.098;15.474;2023-04-30T03:53:17;10.10;99.90
11762;DHT22;5938;47.098;15.474;2023-04-30T03:57:22;10.10;99.90
11762;DHT22;5938;47.098;15.474;2023-04-30T04:01:25;10.10;99.90
11762;DHT22;5938;47.098;15.474;2023-04-30T04:05:28;10.20;99.90
11762;DHT22;5938;47.098;15.474;2023-04-30T04:09:32;10.10;99.90
11762;DHT22;5938;47.098;15.474;2023-04-30T04:13:37;10.00;99.90
11762;DHT22;5938;47.098;15.474;2023-04-30T04:17:40;10.00;99.90
11762;DHT22;5938;47.098;15.474;2023-04-30T04:21:43;10.10;99.90
11762;DHT22;5938;47.098;15.474;2023-04-30T04:25:47;10.10;99.90
11762;DHT22;5938;47.098;15.474;2023-04-30T04:29:53;10.20;99.90
11762;DHT22;5938;47.098;15.474;2023-04-30T04:33:58;10.30;99.90
11762;DHT22;5938;47.098;15.474;2023-04-30T04:38:02;10.30;99.90
11762;DHT22;5938;47.098;15.474;2023-04-30T04:42:06;10.40;99.90
11762;DHT22;5938;47.098;15.474;2023-04-30T04:46:11;10.40;99.90
11762;DHT22;5938;47.098;15.474;2023-04-30T04:50:18;10.50;99.90
11762;DHT22;5938;47.098;15.474;2023-04-30T04:54:22;10.60;99.90
11762;DHT22;5938;47.098;15.474;2023-04-30T04:58:26;10.90;99.90
11762;DHT22;5938;47.098;15.474;2023-04-30T05:02:30;11.10;99.90
11762;DHT22;5938;47.098;15.474;2023-04-30T05:06:34;11.20;99.90
11762;DHT22;5938;47.098;15.474;2023-04-30T05:10:37;11.30;99.90
11762;DHT22;5938;47.098;15.474;2023-04-30T05:14:42;11.40;99.90
11762;DHT22;5938;47.098;15.474;2023-04-30T05:18:47;11.60;99.90
11762;DHT22;5938;47.098;15.474;2023-04-30T05:22:51;11.90;99.90
11762;DHT22;5938;47.098;15.474;2023-04-30T05:26:54;12.20;99.90
11762;DHT22;5938;47.098;15.474;2023-04-30T05:30:57;12.20;99.90
11762;DHT22;5938;47.098;15.474;2023-04-30T05:35:02;12.30;99.90
11762;DHT22;5938;47.098;15.474;2023-04-30T05:39:06;12.50;99.90
11762;DHT22;5938;47.098;15.474;2023-04-30T05:43:10;12.50;99.90
11762;DHT22;5938;47.098;15.474;2023-04-30T05:47:14;12.50;99.90
11762;DHT22;5938;47.098;15.474;2023-04-30T05:51:19;12.50;99.90
11762;DHT22;5938;47.098;15.474;2023-04-30T05:55:22;12.60;99.90
11762;DHT22;5938;47.098;15.474;2023-04-30T05:59:25;12.60;99.90
11762;DHT22;5938;47.098;15.474;2023-04-30T06:03:29;12.60;99.90
11762;DHT22;5938;47.098;15.474;2023-04-30T06:07:33;12.60;99.90
11762;DHT22;5938;47.098;15.474;2023-04-30T06:11:37;12.80;99.90
11762;DHT22;5938;47.098;15.474;2023-04-30T06:15:43;13.20;99.90
11762;DHT22;5938;47.098;15.474;2023-04-30T06:19:47;13.10;99.90
11762;DHT22;5938;47.098;15.474;2023-04-30T06:23:51;13.10;99.90
11762;DHT22;5938;47.098;15.474;2023-04-30T06:27:55;13.00;99.90
11762;DHT22;5938;47.098;15.474;2023-04-30T06:31:58;13.20;99.90
11762;DHT22;5938;47.098;15.474;2023-04-30T06:36:02;13.50;99.90
11762;DHT22;5938;47.098;15.474;2023-04-30T06:40:08;13.80;99.90
11762;DHT22;5938;47.098;15.474;2023-04-30T06:44:11;13.90;99.90
11762;DHT22;5938;47.098;15.474;2023-04-30T06:48:14;13.80;99.90
11762;DHT22;5938;47.098;15.474;2023-04-30T06:52:17;13.70;99.90
11762;DHT22;5938;47.098;15.474;2023-04-30T06:56:23;13.80;99.90
11762;DHT22;5938;47.098;15.474;2023-04-30T07:00:26;14.00;99.90
11762;DHT22;5938;47.098;15.474;2023-04-30T07:04:29;14.20;99.90
11762;DHT22;5938;47.098;15.474;2023-04-30T07:08:33;14.50;99.90
11762;DHT22;5938;47.098;15.474;2023-04-30T07:12:38;14.70;99.90
11762;DHT22;5938;47.098;15.474;2023-04-30T07:16:41;14.40;99.90
11762;DHT22;5938;47.098;15.474;2023-04-30T07:20:44;14.00;99.90
11762;DHT22;5938;47.098;15.474;2023-04-30T07:24:48;13.90;99.90
11762;DHT22;5938;47.098;15.474;2023-04-30T07:28:52;14.20;99.90
11762;DHT22;5938;47.098;15.474;2023-04-30T07:32:56;14.60;99.90
11762;DHT22;5938;47.098;15.474;2023-04-30T07:36:59;14.50;99.90
11762;DHT22;5938;47.098;15.474;2023-04-30T07:41:04;14.70;99.90
11762;DHT22;5938;47.098;15.474;2023-04-30T07:45:11;15.40;99.90
11762;DHT22;5938;47.098;15.474;2023-04-30T07:49:15;16.20;99.90
11762;DHT22;5938;47.098;15.474;2023-04-30T07:53:19;16.40;99.90
11762;DHT22;5938;47.098;15.474;2023-04-30T07:57:22;15.90;99.90
11762;DHT22;5938;47.098;15.474;2023-04-30T08:01:28;15.30;99.90
11762;DHT22;5938;47.098;15.474;2023-04-30T08:05:32;15.00;99.90
11762;DHT22;5938;47.098;15.474;2023-04-30T08:09:36;14.90;99.90
11762;DHT22;5938;47.098;15.474;2023-04-30T08:13:39;15.10;99.90
11762;DHT22;5938;47.098;15.474;2023-04-30T08:17:44;15.90;99.90
11762;DHT22;5938;47.098;15.474;2023-04-30T08:21:49;16.90;99.90
11762;DHT22;5938;47.098;15.474;2023-04-30T08:25:52;17.50;99.80
11762;DHT22;5938;47.098;15.474;2023-04-30T08:29:57;18.60;98.30
11762;DHT22;5938;47.098;15.474;2023-04-30T08:34:02;18.60;96.70
11762;DHT22;5938;47.098;15.474;2023-04-30T08:38:06;18.30;97.00
11762;DHT22;5938;47.098;15.474;2023-04-30T08:42:13;17.80;96.60
11762;DHT22;5938;47.098;15.474;2023-04-30T08:46:19;17.70;97.30
11762;DHT22;5938;47.098;15.474;2023-04-30T08:50:25;17.30;97.40
11762;DHT22;5938;47.098;15.474;2023-04-30T08:54:30;17.10;98.50
11762;DHT22;5938;47.098;15.474;2023-04-30T08:58:34;17.40;98.60
11762;DHT22;5938;47.098;15.474;2023-04-30T09:02:39;18.10;96.20
11762;DHT22;5938;47.098;15.474;2023-04-30T09:06:44;19.00;94.90
11762;DHT22;5938;47.098;15.474;2023-04-30T09:10:48;18.30;96.20
11762;DHT22;5938;47.098;15.474;2023-04-30T09:14:58;18.40;96.90
11762;DHT22;5938;47.098;15.474;2023-04-30T09:19:02;20.50;93.70
11762;DHT22;5938;47.098;15.474;2023-04-30T09:23:08;21.60;92.00
11762;DHT22;5938;47.098;15.474;2023-04-30T09:27:15;20.70;91.90
11762;DHT22;5938;47.098;15.474;2023-04-30T09:31:19;20.20;93.00
11762;DHT22;5938;47.098;15.474;2023-04-30T09:35:30;20.40;93.30
11762;DHT22;5938;47.098;15.474;2023-04-30T09:39:45;21.10;92.60
11762;DHT22;5938;47.098;15.474;2023-04-30T09:43:49;21.50;91.50
11762;DHT22;5938;47.098;15.474;2023-04-30T09:47:53;22.20;91.80
11762;DHT22;5938;47.098;15.474;2023-04-30T09:52:14;21.90;90.10
11762;DHT22;5938;47.098;15.474;2023-04-30T09:56:22;20.70;90.90
11762;DHT22;5938;47.098;15.474;2023-04-30T10:00:26;19.60;90.80
11762;DHT22;5938;47.098;15.474;2023-04-30T10:04:34;18.00;93.20
11762;DHT22;5938;47.098;15.474;2023-04-30T10:08:40;17.60;94.30
11762;DHT22;5938;47.098;15.474;2023-04-30T10:12:49;17.10;95.40
11762;DHT22;5938;47.098;15.474;2023-04-30T10:16:56;17.00;95.90
11762;DHT22;5938;47.098;15.474;2023-04-30T10:21:02;16.80;96.00
11762;DHT22;5938;47.098;15.474;2023-04-30T10:25:08;16.90;96.10
11762;DHT22;5938;47.098;15.474;2023-04-30T10:29:14;16.80;95.80
11762;DHT22;5938;47.098;15.474;2023-04-30T10:33:24;17.10;95.70
11762;DHT22;5938;47.098;15.474;2023-04-30T10:37:37;17.40;94.90
11762;DHT22;5938;47.098;15.474;2023-04-30T10:41:44;17.70;94.40
11762;DHT22;5938;47.098;15.474;2023-04-30T10:45:49;17.90;94.40
11762;DHT22;5938;47.098;15.474;2023-04-30T10:50:01;18.70;93.20
11762;DHT22;5938;47.098;15.474;2023-04-30T10:54:04;19.20;90.50
11762;DHT22;5938;47.098;15.474;2023-04-30T10:58:23;18.80;91.50
11762;DHT22;5938;47.098;15.474;2023-04-30T11:02:37;19.80;90.60
11762;DHT22;5938;47.098;15.474;2023-04-30T11:06:53;19.50;90.60
11762;DHT22;5938;47.098;15.474;2023-04-30T11:10:58;19.70;90.20
11762;DHT22;5938;47.098;15.474;2023-04-30T11:15:05;20.60;89.70
11762;DHT22;5938;47.098;15.474;2023-04-30T11:19:12;22.80;84.30
11762;DHT22;5938;47.098;15.474;2023-04-30T11:23:19;24.70;80.80
11762;DHT22;5938;47.098;15.474;2023-04-30T11:27:41;23.30;80.10
11762;DHT22;5938;47.098;15.474;2023-04-30T11:31:45;22.20;83.00
11762;DHT22;5938;47.098;15.474;2023-04-30T11:35:51;21.60;83.20
11762;DHT22;5938;47.098;15.474;2023-04-30T11:39:55;20.70;84.90
11762;DHT22;5938;47.098;15.474;2023-04-30T11:43:59;20.50;87.30
11762;DHT22;5938;47.098;15.474;2023-04-30T11:48:02;21.70;83.20
11762;DHT22;5938;47.098;15.474;2023-04-30T11:52:07;23.20;81.30
11762;DHT22;5938;47.098;15.474;2023-04-30T11:56:11;22.80;81.30
11762;DHT22;5938;47.098;15.474;2023-04-30T12:00:16;22.10;82.20
11762;DHT22;5938;47.098;15.474;2023-04-30T12:04:20;24.20;76.90
11762;DHT22;5938;47.098;15.474;2023-04-30T12:08:25;23.50;74.30
11762;DHT22;5938;47.098;15.474;2023-04-30T12:12:29;21.80;78.10
11762;DHT22;5938;47.098;15.474;2023-04-30T12:16:40;21.00;80.90
11762;DHT22;5938;47.098;15.474;2023-04-30T12:20:45;21.10;80.60
11762;DHT22;5938;47.098;15.474;2023-04-30T12:24:49;20.50;80.50
11762;DHT22;5938;47.098;15.474;2023-04-30T12:28:55;19.80;83.20
11762;DHT22;5938;47.098;15.474;2023-04-30T12:32:59;19.40;83.30
11762;DHT22;5938;47.098;15.474;2023-04-30T12:37:04;18.90;85.00
11762;DHT22;5938;47.098;15.474;2023-04-30T12:41:11;18.80;84.50
11762;DHT22;5938;47.098;15.474;2023-04-30T12:45:43;18.80;82.40
11762;DHT22;5938;47.098;15.474;2023-04-30T12:49:46;18.80;83.60
11762;DHT22;5938;47.098;15.474;2023-04-30T12:53:51;19.20;82.80
11762;DHT22;5938;47.098;15.474;2023-04-30T12:58:05;19.50;81.30
11762;DHT22;5938;47.098;15.474;2023-04-30T13:02:10;19.90;82.30
11762;DHT22;5938;47.098;15.474;2023-04-30T13:06:14;20.00;80.90
11762;DHT22;5938;47.098;15.474;2023-04-30T13:10:18;20.30;79.30
11762;DHT22;5938;47.098;15.474;2023-04-30T13:14:23;22.00;75.00
11762;DHT22;5938;47.098;15.474;2023-04-30T13:18:26;21.90;74.10
11762;DHT22;5938;47.098;15.474;2023-04-30T13:22:29;21.90;73.60
11762;DHT22;5938;47.098;15.474;2023-04-30T13:26:33;21.50;74.50
11762;DHT22;5938;47.098;15.474;2023-04-30T13:30:37;21.30;74.90
11762;DHT22;5938;47.098;15.474;2023-04-30T13:34:41;21.10;76.80
11762;DHT22;5938;47.098;15.474;2023-04-30T13:38:45;21.50;75.00
11762;DHT22;5938;47.098;15.474;2023-04-30T13:42:49;21.90;72.80
11762;DHT22;5938;47.098;15.474;2023-04-30T13:46:54;22.10;73.00
11762;DHT22;5938;47.098;15.474;2023-04-30T13:50:58;21.40;74.60
11762;DHT22;5938;47.098;15.474;2023-04-30T13:55:02;23.80;73.50
11762;DHT22;5938;47.098;15.474;2023-04-30T13:59:06;27.00;66.80
11762;DHT22;5938;47.098;15.474;2023-04-30T14:03:11;29.50;61.20
11762;DHT22;5938;47.098;15.474;2023-04-30T14:07:15;31.30;56.70
11762;DHT22;5938;47.098;15.474;2023-04-30T14:11:20;31.10;54.30
11762;DHT22;5938;47.098;15.474;2023-04-30T14:15:23;28.00;58.40
11762;DHT22;5938;47.098;15.474;2023-04-30T14:19:28;26.00;62.80
11762;DHT22;5938;47.098;15.474;2023-04-30T14:23:31;26.40;62.30
11762;DHT22;5938;47.098;15.474;2023-04-30T14:27:35;26.70;60.20
11762;DHT22;5938;47.098;15.474;2023-04-30T14:31:38;25.20;62.50
11762;DHT22;5938;47.098;15.474;2023-04-30T14:35:43;23.70;63.50
11762;DHT22;5938;47.098;15.474;2023-04-30T14:39:48;22.80;65.00
11762;DHT22;5938;47.098;15.474;2023-04-30T14:43:51;22.60;68.00
11762;DHT22;5938;47.098;15.474;2023-04-30T14:47:55;24.80;64.50
11762;DHT22;5938;47.098;15.474;2023-04-30T14:51:59;25.60;60.80
11762;DHT22;5938;47.098;15.474;2023-04-30T14:56:03;25.60;61.00
11762;DHT22;5938;47.098;15.474;2023-04-30T15:00:08;25.10;61.90
11762;DHT22;5938;47.098;15.474;2023-04-30T15:04:13;25.40;63.80
11762;DHT22;5938;47.098;15.474;2023-04-30T15:08:17;23.50;65.40
11762;DHT22;5938;47.098;15.474;2023-04-30T15:12:20;23.00;68.30
11762;DHT22;5938;47.098;15.474;2023-04-30T15:16:24;22.10;68.30
11762;DHT22;5938;47.098;15.474;2023-04-30T15:20:27;22.00;69.30
11762;DHT22;5938;47.098;15.474;2023-04-30T15:24:32;21.30;71.00
11762;DHT22;5938;47.098;15.474;2023-04-30T15:28:36;20.60;72.50
11762;DHT22;5938;47.098;15.474;2023-04-30T15:32:40;20.20;75.30
11762;DHT22;5938;47.098;15.474;2023-04-30T15:36:43;20.00;75.80
11762;DHT22;5938;47.098;15.474;2023-04-30T15:40:48;20.10;75.70
11762;DHT22;5938;47.098;15.474;2023-04-30T15:44:51;19.70;76.00
11762;DHT22;5938;47.098;15.474;2023-04-30T15:48:54;18.70;77.30
11762;DHT22;5938;47.098;15.474;2023-04-30T15:52:58;18.20;79.90
11762;DHT22;5938;47.098;15.474;2023-04-30T15:57:02;17.90;78.20
11762;DHT22;5938;47.098;15.474;2023-04-30T16:01:06;17.80;79.50
11762;DHT22;5938;47.098;15.474;2023-04-30T16:05:09;17.60;79.40
11762;DHT22;5938;47.098;15.474;2023-04-30T16:09:13;17.60;81.50
11762;DHT22;5938;47.098;15.474;2023-04-30T16:13:22;17.60;82.00
11762;DHT22;5938;47.098;15.474;2023-04-30T16:17:26;17.60;83.40
11762;DHT22;5938;47.098;15.474;2023-04-30T16:21:32;17.60;82.80
11762;DHT22;5938;47.098;15.474;2023-04-30T16:25:37;17.70;80.50
11762;DHT22;5938;47.098;15.474;2023-04-30T16:29:44;17.70;82.30
11762;DHT22;5938;47.098;15.474;2023-04-30T16:33:47;17.50;83.50
11762;DHT22;5938;47.098;15.474;2023-04-30T16:37:52;17.50;82.70
11762;DHT22;5938;47.098;15.474;2023-04-30T16:41:56;17.40;81.80
11762;DHT22;5938;47.098;15.474;2023-04-30T16:46:01;17.30;82.10
11762;DHT22;5938;47.098;15.474;2023-04-30T16:50:05;17.20;80.70
11762;DHT22;5938;47.098;15.474;2023-04-30T16:54:10;17.10;82.50
11762;DHT22;5938;47.098;15.474;2023-04-30T16:58:13;17.20;82.90
11762;DHT22;5938;47.098;15.474;2023-04-30T17:02:18;17.10;83.80
11762;DHT22;5938;47.098;15.474;2023-04-30T17:06:22;16.90;85.60
11762;DHT22;5938;47.098;15.474;2023-04-30T17:10:25;16.80;86.40
11762;DHT22;5938;47.098;15.474;2023-04-30T17:14:31;16.50;84.60
11762;DHT22;5938;47.098;15.474;2023-04-30T17:18:37;16.30;84.50
11762;DHT22;5938;47.098;15.474;2023-04-30T17:22:40;16.10;85.00
11762;DHT22;5938;47.098;15.474;2023-04-30T17:26:44;15.90;84.10
11762;DHT22;5938;47.098;15.474;2023-04-30T17:30:49;15.80;85.70
11762;DHT22;5938;47.098;15.474;2023-04-30T17:34:54;15.70;85.00
11762;DHT22;5938;47.098;15.474;2023-04-30T17:39:00;15.50;87.70
11762;DHT22;5938;47.098;15.474;2023-04-30T17:43:06;15.30;87.50
11762;DHT22;5938;47.098;15.474;2023-04-30T17:47:10;15.20;87.40
11762;DHT22;5938;47.098;15.474;2023-04-30T17:51:18;15.00;90.30
11762;DHT22;5938;47.098;15.474;2023-04-30T17:55:23;14.80;90.90
11762;DHT22;5938;47.098;15.474;2023-04-30T17:59:38;14.60;91.90
11762;DHT22;5938;47.098;15.474;2023-04-30T18:03:42;14.30;92.30
11762;DHT22;5938;47.098;15.474;2023-04-30T18:07:48;14.00;90.50
11762;DHT22;5938;47.098;15.474;2023-04-30T18:11:52;13.80;92.70
11762;DHT22;5938;47.098;15.474;2023-04-30T18:15:58;13.70;92.60
11762;DHT22;5938;47.098;15.474;2023-04-30T18:20:04;13.50;92.60
11762;DHT22;5938;47.098;15.474;2023-04-30T18:24:18;13.30;93.60
11762;DHT22;5938;47.098;15.474;2023-04-30T18:28:28;13.00;93.80
11762;DHT22;5938;47.098;15.474;2023-04-30T18:32:32;12.90;94.30
11762;DHT22;5938;47.098;15.474;2023-04-30T18:36:37;12.60;95.10
11762;DHT22;5938;47.098;15.474;2023-04-30T18:40:45;12.30;96.10
11762;DHT22;5938;47.098;15.474;2023-04-30T18:44:49;12.00;96.30
11762;DHT22;5938;47.098;15.474;2023-04-30T18:48:53;11.80;97.20
11762;DHT22;5938;47.098;15.474;2023-04-30T18:52:57;11.50;97.60
11762;DHT22;5938;47.098;15.474;2023-04-30T18:57:16;11.20;97.60
11762;DHT22;5938;47.098;15.474;2023-04-30T19:01:22;11.00;98.60
11762;DHT22;5938;47.098;15.474;2023-04-30T19:05:30;10.80;99.50
11762;DHT22;5938;47.098;15.474;2023-04-30T19:09:37;10.60;99.90
11762;DHT22;5938;47.098;15.474;2023-04-30T19:13:42;10.40;99.90
11762;DHT22;5938;47.098;15.474;2023-04-30T19:17:46;10.30;99.90
11762;DHT22;5938;47.098;15.474;2023-04-30T19:21:51;10.10;99.90
11762;DHT22;5938;47.098;15.474;2023-04-30T19:25:56;9.90;99.90
11762;DHT22;5938;47.098;15.474;2023-04-30T19:30:04;9.80;99.90
11762;DHT22;5938;47.098;15.474;2023-04-30T19:34:12;9.80;99.90
11762;DHT22;5938;47.098;15.474;2023-04-30T19:38:19;9.60;99.90
11762;DHT22;5938;47.098;15.474;2023-04-30T19:42:25;9.50;99.90
11762;DHT22;5938;47.098;15.474;2023-04-30T19:46:34;9.30;99.90
11762;DHT22;5938;47.098;15.474;2023-04-30T19:50:40;9.20;99.90
11762;DHT22;5938;47.098;15.474;2023-04-30T19:54:47;9.00;99.90
11762;DHT22;5938;47.098;15.474;2023-04-30T19:58:51;8.90;99.90
11762;DHT22;5938;47.098;15.474;2023-04-30T20:03:01;8.90;99.90
11762;DHT22;5938;47.098;15.474;2023-04-30T20:07:07;8.80;99.90
11762;DHT22;5938;47.098;15.474;2023-04-30T20:11:11;8.70;99.90
11762;DHT22;5938;47.098;15.474;2023-04-30T20:15:16;8.60;99.90
11762;DHT22;5938;47.098;15.474;2023-04-30T20:19:24;8.50;99.90
11762;DHT22;5938;47.098;15.474;2023-04-30T20:23:28;8.30;99.90
11762;DHT22;5938;47.098;15.474;2023-04-30T20:27:32;8.20;99.90
11762;DHT22;5938;47.098;15.474;2023-04-30T20:31:39;8.20;99.90
11762;DHT22;5938;47.098;15.474;2023-04-30T20:35:45;8.00;99.90
11762;DHT22;5938;47.098;15.474;2023-04-30T20:39:49;7.90;99.90
11762;DHT22;5938;47.098;15.474;2023-04-30T20:43:53;7.80;99.90
11762;DHT22;5938;47.098;15.474;2023-04-30T20:47:57;7.80;99.90
11762;DHT22;5938;47.098;15.474;2023-04-30T20:52:03;7.70;99.90
11762;DHT22;5938;47.098;15.474;2023-04-30T20:56:06;7.60;99.90
11762;DHT22;5938;47.098;15.474;2023-04-30T21:00:11;7.50;99.90
11762;DHT22;5938;47.098;15.474;2023-04-30T21:04:15;7.40;99.90
11762;DHT22;5938;47.098;15.474;2023-04-30T21:08:19;7.40;99.90
11762;DHT22;5938;47.098;15.474;2023-04-30T21:12:22;7.30;99.90
11762;DHT22;5938;47.098;15.474;2023-04-30T21:16:26;7.20;99.90
11762;DHT22;5938;47.098;15.474;2023-04-30T21:20:29;7.20;99.90
11762;DHT22;5938;47.098;15.474;2023-04-30T21:24:35;7.10;99.90
11762;DHT22;5938;47.098;15.474;2023-04-30T21:28:40;7.10;99.90
11762;DHT22;5938;47.098;15.474;2023-04-30T21:32:44;7.00;99.90
11762;DHT22;5938;47.098;15.474;2023-04-30T21:36:47;6.90;99.90
11762;DHT22;5938;47.098;15.474;2023-04-30T21:40:53;6.90;99.90
11762;DHT22;5938;47.098;15.474;2023-04-30T21:44:56;6.80;99.90
11762;DHT22;5938;47.098;15.474;2023-04-30T21:49:01;6.80;99.90
11762;DHT22;5938;47.098;15.474;2023-04-30T21:53:04;6.70;99.90
11762;DHT22;5938;47.098;15.474;2023-04-30T21:57:09;6.60;99.90
11762;DHT22;5938;47.098;15.474;2023-04-30T22:01:12;6.50;99.90
11762;DHT22;5938;47.098;15.474;2023-04-30T22:05:16;6.50;99.90
11762;DHT22;5938;47.098;15.474;2023-04-30T22:09:20;6.40;99.90
11762;DHT22;5938;47.098;15.474;2023-04-30T22:13:26;6.40;99.90
11762;DHT22;5938;47.098;15.474;2023-04-30T22:17:29;6.20;99.90
11762;DHT22;5938;47.098;15.474;2023-04-30T22:21:33;6.20;99.90
11762;DHT22;5938;47.098;15.474;2023-04-30T22:25:37;6.20;99.90
11762;DHT22;5938;47.098;15.474;2023-04-30T22:29:42;6.20;99.90
11762;DHT22;5938;47.098;15.474;2023-04-30T22:33:45;6.10;99.90
11762;DHT22;5938;47.098;15.474;2023-04-30T22:37:49;6.00;99.90
11762;DHT22;5938;47.098;15.474;2023-04-30T22:41:52;6.00;99.90
11762;DHT22;5938;47.098;15.474;2023-04-30T22:45:57;5.90;99.90
11762;DHT22;5938;47.098;15.474;2023-04-30T22:50:02;5.90;99.90
11762;DHT22;5938;47.098;15.474;2023-04-30T22:54:08;5.90;99.90
11762;DHT22;5938;47.098;15.474;2023-04-30T22:58:11;5.80;99.90
11762;DHT22;5938;47.098;15.474;2023-04-30T23:02:16;5.70;99.90
11762;DHT22;5938;47.098;15.474;2023-04-30T23:06:21;5.70;99.90
11762;DHT22;5938;47.098;15.474;2023-04-30T23:10:24;5.70;99.90
11762;DHT22;5938;47.098;15.474;2023-04-30T23:14:27;5.60;99.90
11762;DHT22;5938;47.098;15.474;2023-04-30T23:18:32;5.50;99.90
11762;DHT22;5938;47.098;15.474;2023-04-30T23:22:36;5.50;99.90
11762;DHT22;5938;47.098;15.474;2023-04-30T23:26:39;5.50;99.90
11762;DHT22;5938;47.098;15.474;2023-04-30T23:30:43;5.50;99.90
11762;DHT22;5938;47.098;15.474;2023-04-30T23:34:48;5.40;99.90
11762;DHT22;5938;47.098;15.474;2023-04-30T23:38:52;5.40;99.90
11762;DHT22;5938;47.098;15.474;2023-04-30T23:42:55;5.40;99.90
11762;DHT22;5938;47.098;15.474;2023-04-30T23:46:59;5.20;99.90
11762;DHT22;5938;47.098;15.474;2023-04-30T23:51:04;5.20;99.90
11762;DHT22;5938;47.098;15.474;2023-04-30T23:55:09;5.20;99.90
11762;DHT22;5938;47.098;15.474;2023-04-30T23:59:13;5.10;99.90
